Time;durP1;ratioP1;P1;durP2;ratioP2;P2;SDS_P1;SDS_P2;PMS_P1;PMS_P2;Temp;Humidity;BMP_temperature;BMP_pressure;BME280_temperature;BME280_humidity;BME280_pressure;Samples;Min_cycle;Max_cycle;Signal;HPM_P1;HPM_P2
2021/11/11 00:00:07;;;;;;;49.08;20.00;;;0.90;99.90;;;;;;5033693;28;20056;-73
2021/11/11 00:02:40;;;;;;;31.13;19.73;;;0.80;99.90;;;;;;5051306;28;20135;-72
2021/11/11 00:05:12;;;;;;;54.10;20.33;;;0.90;99.90;;;;;;5034307;28;20041;-73
2021/11/11 00:07:39;;;;;;;29.00;19.25;;;0.90;99.90;;;;;;5033578;28;20041;-73
2021/11/11 00:10:13;;;;;;;33.75;20.08;;;0.80;99.90;;;;;;5034576;28;20048;-73
2021/11/11 00:12:46;;;;;;;53.85;20.90;;;0.80;99.90;;;;;;5034974;28;20053;-73
2021/11/11 00:15:14;;;;;;;42.83;20.83;;;0.80;99.90;;;;;;5034565;28;20063;-72
2021/11/11 00:17:48;;;;;;;86.30;25.43;;;0.80;99.90;;;;;;5033495;28;20055;-72
2021/11/11 00:20:24;;;;;;;40.97;19.45;;;0.80;99.90;;;;;;5033578;28;20056;-73
2021/11/11 00:22:53;;;;;;;27.67;19.70;;;0.80;99.90;;;;;;5033503;28;20049;-72
2021/11/11 00:25:23;;;;;;;29.40;19.35;;;0.80;99.90;;;;;;5033076;28;20049;-72
2021/11/11 00:27:50;;;;;;;39.65;21.75;;;0.80;99.90;;;;;;5033527;28;20388;-73
2021/11/11 00:30:19;;;;;;;32.85;20.70;;;0.80;99.90;;;;;;5033279;28;20049;-73
2021/11/11 00:32:52;;;;;;;27.90;19.77;;;0.80;99.90;;;;;;5033199;28;20045;-72
2021/11/11 00:35:22;;;;;;;26.95;18.95;;;0.80;99.90;;;;;;5032949;28;20045;-73
2021/11/11 00:37:57;;;;;;;28.98;18.25;;;0.80;99.90;;;;;;5033185;28;20117;-73
2021/11/11 00:40:31;;;;;;;27.95;17.92;;;0.90;99.90;;;;;;5017504;28;20072;-73
2021/11/11 00:43:01;;;;;;;24.10;18.02;;;0.90;99.90;;;;;;5033419;28;20052;-72
2021/11/11 00:45:28;;;;;;;29.95;20.23;;;0.90;99.90;;;;;;5032907;28;20045;-73
2021/11/11 00:48:01;;;;;;;32.45;21.90;;;0.90;99.90;;;;;;5033191;28;20049;-73
2021/11/11 00:50:31;;;;;;;38.90;23.50;;;0.90;99.90;;;;;;5033082;28;20056;-73
2021/11/11 00:53:07;;;;;;;33.22;21.10;;;0.90;99.90;;;;;;5033302;28;20128;-72
2021/11/11 00:55:39;;;;;;;37.38;20.63;;;1.00;99.90;;;;;;5036929;28;20388;-73
2021/11/11 00:58:18;;;;;;;36.45;18.58;;;1.00;99.90;;;;;;5036905;28;20079;-73
2021/11/11 01:00:45;;;;;;;33.95;18.35;;;1.00;99.90;;;;;;5054856;28;20051;-72
2021/11/11 01:03:20;;;;;;;31.17;19.13;;;0.90;99.90;;;;;;5036726;28;20051;-72
2021/11/11 01:05:52;;;;;;;27.13;18.10;;;0.90;99.90;;;;;;5037611;28;20037;-73
2021/11/11 01:08:27;;;;;;;25.55;17.60;;;0.90;99.90;;;;;;5036941;28;20140;-73
2021/11/11 01:11:01;;;;;;;24.85;18.42;;;0.90;99.90;;;;;;5036807;28;20414;-73
2021/11/11 01:13:35;;;;;;;23.55;16.85;;;0.90;99.90;;;;;;5037444;28;20040;-72
2021/11/11 01:16:06;;;;;;;31.58;20.42;;;0.90;99.90;;;;;;5037441;28;20482;-73
2021/11/11 01:18:38;;;;;;;30.00;19.38;;;0.90;99.90;;;;;;5037544;28;20439;-73
2021/11/11 01:21:10;;;;;;;24.65;17.27;;;0.90;99.90;;;;;;5036682;28;20064;-73
2021/11/11 01:23:37;;;;;;;24.73;17.98;;;0.90;99.90;;;;;;5054415;28;20487;-73
2021/11/11 01:26:09;;;;;;;23.08;16.83;;;0.90;99.90;;;;;;5054042;28;20099;-73
2021/11/11 01:28:41;;;;;;;24.52;17.00;;;0.90;99.90;;;;;;5036408;28;20087;-73
2021/11/11 01:31:12;;;;;;;30.60;16.98;;;0.90;99.90;;;;;;5036329;28;20515;-73
2021/11/11 01:33:40;;;;;;;33.03;16.48;;;0.90;99.90;;;;;;5054020;28;20041;-73
2021/11/11 01:36:07;;;;;;;25.95;17.27;;;0.80;99.90;;;;;;5036281;28;20056;-73
2021/11/11 01:38:46;;;;;;;39.35;17.63;;;0.80;99.90;;;;;;5036165;28;20156;-73
2021/11/11 01:41:14;;;;;;;34.20;18.65;;;0.80;99.90;;;;;;5036346;28;20049;-73
2021/11/11 01:43:41;;;;;;;31.42;18.10;;;0.70;99.90;;;;;;5035961;28;20573;-73
2021/11/11 01:46:13;;;;;;;37.60;17.83;;;0.70;99.90;;;;;;5035876;28;20045;-73
2021/11/11 01:48:45;;;;;;;34.20;18.88;;;0.70;99.90;;;;;;5035823;28;20459;-73
2021/11/11 01:51:22;;;;;;;23.48;17.55;;;0.60;99.90;;;;;;5037444;28;20518;-73
2021/11/11 01:54:01;;;;;;;29.08;18.85;;;0.70;99.90;;;;;;5036059;28;20107;-73
2021/11/11 01:56:35;;;;;;;28.27;17.83;;;0.70;99.90;;;;;;5036071;28;20040;-73
2021/11/11 01:59:15;;;;;;;26.83;18.30;;;0.70;99.90;;;;;;5035601;28;20071;-73
2021/11/11 02:01:42;;;;;;;28.25;18.73;;;0.70;99.90;;;;;;5035372;28;20060;-73
2021/11/11 02:04:17;;;;;;;29.10;18.15;;;0.70;99.90;;;;;;5019347;28;20052;-73
2021/11/11 02:06:56;;;;;;;29.95;17.52;;;0.80;99.90;;;;;;5034486;28;20045;-73
2021/11/11 02:09:38;;;;;;;28.75;17.00;;;0.80;99.90;;;;;;5037741;28;20044;-73
2021/11/11 02:12:10;;;;;;;26.67;18.88;;;0.80;99.90;;;;;;5035466;28;20041;-73
2021/11/11 02:14:50;;;;;;;38.17;17.77;;;0.80;99.90;;;;;;5034860;28;20102;-73
2021/11/11 02:17:28;;;;;;;36.05;18.25;;;0.80;99.90;;;;;;5035737;28;20043;-72
2021/11/11 02:20:10;;;;;;;46.83;19.73;;;0.70;99.90;;;;;;5035010;28;20056;-73
2021/11/11 02:22:58;;;;;;;47.58;19.60;;;0.70;99.90;;;;;;5053583;28;20407;-73
2021/11/11 02:25:45;;;;;;;27.17;17.85;;;0.60;99.90;;;;;;5052498;28;20037;-73
2021/11/11 02:28:20;;;;;;;42.83;19.40;;;0.70;99.90;;;;;;5035304;28;20557;-73
2021/11/11 02:30:53;;;;;;;33.50;18.40;;;0.70;99.90;;;;;;5034759;28;20052;-73
2021/11/11 02:33:39;;;;;;;31.08;17.77;;;0.70;99.90;;;;;;5034824;28;20146;-73
2021/11/11 02:36:14;;;;;;;45.38;18.60;;;0.70;99.90;;;;;;5019033;28;20051;-73
2021/11/11 02:38:49;;;;;;;37.78;17.80;;;0.70;99.90;;;;;;5034612;28;20049;-73
2021/11/11 02:41:17;;;;;;;30.83;17.02;;;0.70;99.90;;;;;;5018417;28;20072;-73
2021/11/11 02:43:49;;;;;;;69.35;19.13;;;0.70;99.90;;;;;;5034662;28;20099;-73
2021/11/11 02:46:25;;;;;;;37.88;17.73;;;0.70;99.90;;;;;;5035120;28;20068;-73
2021/11/11 02:48:53;;;;;;;36.17;18.35;;;0.80;99.90;;;;;;5035387;28;20132;-73
2021/11/11 02:51:25;;;;;;;54.63;18.02;;;0.80;99.90;;;;;;5019111;28;20048;-73
2021/11/11 02:53:57;;;;;;;76.53;19.85;;;0.80;99.90;;;;;;5052723;28;20037;-73
2021/11/11 02:56:31;;;;;;;43.22;18.08;;;0.80;99.90;;;;;;5019459;28;20173;-73
2021/11/11 02:59:05;;;;;;;49.15;18.40;;;0.90;99.90;;;;;;5019168;28;20128;-73
2021/11/11 03:01:32;;;;;;;44.45;18.98;;;0.80;99.90;;;;;;5018112;28;20044;-73
2021/11/11 03:03:59;;;;;;;34.33;16.98;;;0.80;99.90;;;;;;5018126;28;20128;-73
2021/11/11 03:06:26;;;;;;;34.22;18.38;;;0.80;99.90;;;;;;5018139;28;20411;-73
2021/11/11 03:08:53;;;;;;;39.90;17.58;;;0.80;99.90;;;;;;5034626;28;20045;-73
2021/11/11 03:11:23;;;;;;;36.08;18.15;;;0.80;99.90;;;;;;5052419;28;20045;-73
2021/11/11 03:13:59;;;;;;;57.72;21.52;;;0.90;99.90;;;;;;5036786;28;20056;-73
2021/11/11 03:16:26;;;;;;;73.13;19.88;;;0.90;99.90;;;;;;5035630;28;20073;-73
2021/11/11 03:18:53;;;;;;;57.70;18.98;;;0.90;99.90;;;;;;5036220;28;20140;-73
2021/11/11 03:21:21;;;;;;;38.10;18.70;;;0.90;99.90;;;;;;5034462;28;20045;-72
2021/11/11 03:23:53;;;;;;;55.00;18.70;;;0.90;99.90;;;;;;5034119;28;20048;-72
2021/11/11 03:26:25;;;;;;;59.28;18.80;;;0.80;99.90;;;;;;5033893;28;20124;-73
2021/11/11 03:28:57;;;;;;;51.45;18.48;;;0.80;99.90;;;;;;5018332;28;20076;-73
2021/11/11 03:31:33;;;;;;;43.67;18.38;;;0.80;99.90;;;;;;5034343;28;20051;-73
2021/11/11 03:34:01;;;;;;;36.47;19.10;;;0.90;99.90;;;;;;5034060;28;20048;-73
2021/11/11 03:36:30;;;;;;;48.97;18.85;;;0.90;99.90;;;;;;5033930;28;20048;-72
2021/11/11 03:38:58;;;;;;;36.50;19.08;;;0.90;99.90;;;;;;5017701;28;20065;-73
2021/11/11 03:41:25;;;;;;;34.28;18.05;;;0.90;99.90;;;;;;5051727;28;20450;-73
2021/11/11 03:43:59;;;;;;;35.47;17.50;;;0.90;99.90;;;;;;5033633;28;20419;-73
2021/11/11 03:46:25;;;;;;;29.02;18.85;;;0.90;99.90;;;;;;5051697;28;20052;-73
2021/11/11 03:48:57;;;;;;;68.45;17.75;;;0.90;99.90;;;;;;5018388;28;20041;-72
2021/11/11 03:51:29;;;;;;;54.13;17.13;;;0.90;99.90;;;;;;5051756;28;20065;-73
2021/11/11 03:54:02;;;;;;;34.20;16.75;;;0.80;99.90;;;;;;5033357;28;20059;-73
2021/11/11 03:56:29;;;;;;;57.78;17.15;;;0.80;99.90;;;;;;5033618;28;20397;-73
2021/11/11 03:59:03;;;;;;;36.15;16.50;;;0.80;99.90;;;;;;5018008;28;20048;-73
2021/11/11 04:01:32;;;;;;;29.45;18.00;;;0.80;99.90;;;;;;5033839;28;20049;-73
2021/11/11 04:04:00;;;;;;;28.73;16.63;;;0.80;99.90;;;;;;5017506;28;20053;-73
2021/11/11 04:06:34;;;;;;;31.27;15.88;;;0.90;99.90;;;;;;5017999;28;20041;-73
2021/11/11 04:09:07;;;;;;;60.88;18.85;;;0.90;99.90;;;;;;5033400;28;20037;-73
2021/11/11 04:11:34;;;;;;;29.25;17.77;;;0.90;99.90;;;;;;5033644;28;20071;-74
2021/11/11 04:14:09;;;;;;;38.08;17.27;;;0.90;99.90;;;;;;5033002;28;20128;-73
2021/11/11 04:16:42;;;;;;;25.63;16.42;;;0.90;99.90;;;;;;5033579;28;20389;-73
2021/11/11 04:19:16;;;;;;;24.48;17.15;;;0.90;99.90;;;;;;5033302;28;20044;-73
2021/11/11 04:21:44;;;;;;;34.42;17.23;;;0.90;99.90;;;;;;5033717;28;20060;-73
2021/11/11 04:24:12;;;;;;;38.30;18.20;;;0.80;99.90;;;;;;5033007;28;20041;-73
2021/11/11 04:26:55;;;;;;;33.13;16.65;;;0.80;99.90;;;;;;5017211;28;20048;-72
2021/11/11 04:29:29;;;;;;;52.15;17.98;;;0.90;99.90;;;;;;5038219;28;20055;-73
2021/11/11 04:32:04;;;;;;;44.00;17.77;;;0.90;99.90;;;;;;5039119;28;20055;-71
2021/11/11 04:34:33;;;;;;;22.60;16.75;;;0.90;99.90;;;;;;5045239;28;20503;-73
2021/11/11 05:03:48;;;;;;;32.90;16.02;;;0.80;99.90;;;;;;5039043;28;20098;-72
2021/11/11 05:06:20;;;;;;;40.22;17.75;;;0.80;99.90;;;;;;5038823;28;20044;-72
2021/11/11 05:08:49;;;;;;;29.40;16.73;;;0.80;99.90;;;;;;5039124;28;20049;-74
2021/11/11 05:11:22;;;;;;;23.70;16.40;;;0.80;99.90;;;;;;5023572;28;20531;-73
2021/11/11 05:13:54;;;;;;;20.60;14.90;;;0.80;99.90;;;;;;5033809;28;20046;-72
2021/11/11 05:16:22;;;;;;;22.00;15.57;;;0.80;99.90;;;;;;5039277;28;20048;-72
2021/11/11 05:18:54;;;;;;;20.88;15.23;;;0.70;99.90;;;;;;5038214;28;20072;-73
2021/11/11 05:21:21;;;;;;;23.75;14.80;;;0.70;99.90;;;;;;5037393;28;20045;-73
2021/11/11 05:23:54;;;;;;;21.60;15.02;;;0.70;99.90;;;;;;5038136;28;20487;-73
2021/11/11 05:26:27;;;;;;;23.20;15.05;;;0.70;99.90;;;;;;5048885;28;20091;-73
2021/11/11 05:29:01;;;;;;;19.90;14.25;;;0.70;99.90;;;;;;5058186;28;20037;-72
2021/11/11 05:31:34;;;;;;;18.85;10.65;;;0.70;99.90;;;;;;5042791;28;20045;-73
2021/11/11 05:34:02;;;;;;;19.23;13.48;;;0.70;99.90;;;;;;5042274;28;20064;-72
2021/11/11 05:36:34;;;;;;;19.80;14.25;;;0.60;99.90;;;;;;5043248;28;20453;-72
2021/11/11 05:39:01;;;;;;;20.85;14.20;;;0.60;99.90;;;;;;5058961;28;20511;-73
2021/11/11 05:41:28;;;;;;;18.40;13.65;;;0.60;99.90;;;;;;5054431;28;20101;-73
2021/11/11 05:44:00;;;;;;;19.73;14.95;;;0.60;99.90;;;;;;5055720;28;20040;-73
2021/11/11 05:46:29;;;;;;;20.98;14.80;;;0.60;99.90;;;;;;5036959;28;20098;-73
2021/11/11 05:49:01;;;;;;;20.48;14.80;;;0.80;99.90;;;;;;5031650;28;20041;-73
2021/11/11 05:51:33;;;;;;;20.92;14.82;;;0.80;99.90;;;;;;5042569;28;20040;-73
2021/11/11 05:54:05;;;;;;;19.02;13.25;;;0.80;99.90;;;;;;5053488;28;20046;-73
2021/11/11 05:56:38;;;;;;;20.15;14.90;;;0.80;99.90;;;;;;5054452;28;20057;-73
2021/11/11 05:59:05;;;;;;;22.02;15.45;;;0.80;99.90;;;;;;5049407;28;20578;-73
2021/11/11 06:01:32;;;;;;;22.02;14.85;;;0.80;99.90;;;;;;5044703;28;20051;-73
2021/11/11 06:04:05;;;;;;;19.10;13.35;;;0.80;99.90;;;;;;5048767;28;20044;-73
2021/11/11 06:06:43;;;;;;;19.23;13.93;;;0.70;99.90;;;;;;5034295;28;20627;-73
2021/11/11 06:09:10;;;;;;;17.73;13.45;;;0.70;99.90;;;;;;5047876;28;20549;-72
2021/11/11 06:11:42;;;;;;;17.92;13.50;;;0.70;99.90;;;;;;5037146;28;20048;-72
2021/11/11 06:14:10;;;;;;;19.23;14.25;;;0.60;99.90;;;;;;5021939;28;20393;-72
2021/11/11 06:16:37;;;;;;;18.45;13.35;;;0.60;99.90;;;;;;5049242;28;20049;-73
2021/11/11 06:19:10;;;;;;;17.88;13.85;;;0.60;99.90;;;;;;5048624;28;20043;-73
2021/11/11 06:21:38;;;;;;;18.25;14.57;;;0.60;99.90;;;;;;5017321;28;20037;-73
2021/11/11 06:24:11;;;;;;;18.77;13.55;;;0.60;99.90;;;;;;5029948;28;20036;-74
2021/11/11 06:26:44;;;;;;;18.10;13.45;;;0.50;99.90;;;;;;5047526;28;20449;-73
2021/11/11 06:29:16;;;;;;;18.90;14.18;;;0.40;99.90;;;;;;4999724;28;20057;-72
2021/11/11 06:31:49;;;;;;;18.48;13.82;;;0.50;99.90;;;;;;5030836;28;20049;-73
2021/11/11 06:34:25;;;;;;;19.02;14.45;;;0.50;99.90;;;;;;5018959;28;20064;-73
2021/11/11 06:36:57;;;;;;;23.90;15.55;;;0.50;99.90;;;;;;5056672;28;20045;-74
2021/11/11 06:39:24;;;;;;;22.65;15.63;;;0.50;99.90;;;;;;5029622;28;20450;-73
2021/11/11 06:41:56;;;;;;;28.30;16.73;;;0.60;99.90;;;;;;5025338;28;20515;-72
2021/11/11 06:44:23;;;;;;;34.15;21.33;;;0.60;99.90;;;;;;5034415;28;20048;-72
2021/11/11 06:46:55;;;;;;;31.88;21.05;;;0.60;99.90;;;;;;5035037;28;20037;-72
2021/11/11 06:49:27;;;;;;;40.30;16.52;;;0.60;99.90;;;;;;5035842;28;20051;-73
2021/11/11 06:51:54;;;;;;;23.63;15.57;;;0.60;99.90;;;;;;5031803;28;20557;-72
2021/11/11 06:54:26;;;;;;;40.08;16.58;;;0.70;99.90;;;;;;5033581;28;20044;-73
2021/11/11 06:57:13;;;;;;;23.02;15.10;;;0.80;99.90;;;;;;5052477;28;20094;-73
2021/11/11 06:59:51;;;;;;;23.30;14.45;;;0.70;99.90;;;;;;5033460;28;20036;-73
2021/11/11 07:02:18;;;;;;;28.60;14.98;;;0.70;99.90;;;;;;5034019;28;20049;-73
2021/11/11 07:04:46;;;;;;;43.80;30.83;;;0.70;99.90;;;;;;5033141;28;20131;-73
2021/11/11 07:07:15;;;;;;;27.45;16.15;;;0.70;99.90;;;;;;5024116;28;20044;-73
2021/11/11 07:09:50;;;;;;;47.10;18.27;;;0.70;99.90;;;;;;5033821;28;20560;-73
2021/11/11 07:12:18;;;;;;;54.90;18.13;;;0.70;99.90;;;;;;5033661;28;20045;-73
2021/11/11 07:14:46;;;;;;;61.20;17.05;;;0.70;99.90;;;;;;5033004;28;20045;-73
2021/11/11 07:17:21;;;;;;;71.10;16.70;;;0.70;99.90;;;;;;5018159;28;20045;-72
2021/11/11 07:19:54;;;;;;;45.80;15.77;;;0.60;99.90;;;;;;5047035;28;20087;-73
2021/11/11 07:22:28;;;;;;;49.38;16.00;;;0.60;99.90;;;;;;5025263;28;20037;-73
2021/11/11 07:24:58;;;;;;;53.97;16.83;;;0.60;99.90;;;;;;5047579;28;20057;-72
2021/11/11 07:27:30;;;;;;;30.58;15.80;;;0.60;99.90;;;;;;5033870;28;20061;-73
2021/11/11 07:29:58;;;;;;;32.42;14.88;;;0.60;99.90;;;;;;5027049;28;20043;-73
2021/11/11 07:32:27;;;;;;;23.38;15.27;;;0.70;99.90;;;;;;5032770;28;20087;-73
2021/11/11 07:34:55;;;;;;;24.48;15.55;;;0.70;99.90;;;;;;5027321;28;20049;-73
2021/11/11 07:37:27;;;;;;;23.80;15.05;;;0.70;99.90;;;;;;5033748;28;20110;-73
2021/11/11 07:39:55;;;;;;;24.90;16.67;;;0.80;99.90;;;;;;5033631;28;20041;-73
2021/11/11 07:42:27;;;;;;;22.45;16.88;;;0.80;99.90;;;;;;5037805;28;20422;-73
2021/11/11 07:45:00;;;;;;;23.27;15.30;;;0.90;99.90;;;;;;5044290;28;20041;-73
2021/11/11 07:47:33;;;;;;;49.95;29.08;;;0.90;99.90;;;;;;5024290;28;20140;-73
2021/11/11 07:50:03;;;;;;;43.92;28.02;;;0.90;99.90;;;;;;5070470;28;20510;-73
2021/11/11 07:52:31;;;;;;;59.63;34.55;;;1.00;99.90;;;;;;5053065;28;20041;-73
2021/11/11 07:54:59;;;;;;;44.28;27.80;;;1.00;99.90;;;;;;5050730;28;20049;-73
2021/11/11 07:57:29;;;;;;;48.05;30.10;;;1.00;99.90;;;;;;5013713;28;20091;-73
2021/11/11 07:59:57;;;;;;;46.38;26.27;;;1.00;99.90;;;;;;5030015;28;20404;-72
2021/11/11 08:02:26;;;;;;;36.00;24.25;;;1.10;99.90;;;;;;5029649;28;20127;-73
2021/11/11 08:04:58;;;;;;;41.38;22.88;;;1.20;99.90;;;;;;5016398;28;20044;-73
2021/11/11 08:07:27;;;;;;;34.35;20.55;;;1.20;99.90;;;;;;5017069;28;20041;-73
2021/11/11 08:09:54;;;;;;;28.40;19.45;;;1.30;99.90;;;;;;5033159;28;20033;-73
2021/11/11 08:12:22;;;;;;;25.30;17.45;;;1.30;99.90;;;;;;5033326;28;20526;-73
2021/11/11 08:14:57;;;;;;;29.30;17.92;;;1.40;99.90;;;;;;5033939;28;20051;-73
2021/11/11 08:17:25;;;;;;;26.92;19.45;;;1.40;99.90;;;;;;5033371;28;20068;-73
2021/11/11 08:19:55;;;;;;;37.75;23.48;;;1.50;99.90;;;;;;5033194;28;20718;-73
2021/11/11 08:22:26;;;;;;;30.55;20.80;;;1.50;99.90;;;;;;5016487;28;20077;-73
2021/11/11 08:25:07;;;;;;;33.00;20.67;;;1.60;99.90;;;;;;5015545;28;20049;-73
2021/11/11 08:27:35;;;;;;;33.20;21.30;;;1.60;99.90;;;;;;5019760;28;20052;-73
2021/11/11 08:30:10;;;;;;;30.98;19.02;;;1.60;99.90;;;;;;5016400;28;20407;-73
2021/11/11 08:32:46;;;;;;;30.90;17.42;;;1.60;99.90;;;;;;5037536;28;20044;-73
2021/11/11 08:35:15;;;;;;;27.40;18.45;;;1.50;99.90;;;;;;5064524;28;20045;-73
2021/11/11 08:37:45;;;;;;;29.38;17.58;;;1.50;99.90;;;;;;5017568;28;20411;-73
2021/11/11 08:40:16;;;;;;;28.23;18.05;;;1.50;99.90;;;;;;5033413;28;20049;-73
2021/11/11 08:42:51;;;;;;;26.35;18.30;;;1.50;99.90;;;;;;5033976;28;20063;-73
2021/11/11 08:45:30;;;;;;;43.78;24.40;;;1.60;99.90;;;;;;5015085;28;20037;-73
2021/11/11 08:48:03;;;;;;;32.97;22.73;;;1.60;99.90;;;;;;5016172;28;20048;-72
2021/11/11 08:50:36;;;;;;;40.13;22.13;;;1.70;99.90;;;;;;5024712;28;20048;-73
2021/11/11 08:53:06;;;;;;;35.90;19.52;;;1.70;99.90;;;;;;5016139;28;20055;-73
2021/11/11 08:55:43;;;;;;;31.60;18.35;;;1.80;99.90;;;;;;5028578;28;20470;-73
2021/11/11 08:58:16;;;;;;;46.30;18.00;;;1.90;99.90;;;;;;5017150;28;20049;-72
2021/11/11 09:00:51;;;;;;;38.57;18.80;;;1.90;99.90;;;;;;5016878;28;20492;-73
2021/11/11 09:03:19;;;;;;;33.63;18.15;;;1.80;99.90;;;;;;5032445;28;20045;-73
2021/11/11 09:05:52;;;;;;;39.47;19.33;;;1.80;99.90;;;;;;5016588;28;20045;-73
2021/11/11 09:08:21;;;;;;;33.38;19.23;;;1.80;99.90;;;;;;5032719;28;20511;-73
2021/11/11 09:10:50;;;;;;;35.90;20.35;;;1.90;99.90;;;;;;5034140;28;20041;-73
2021/11/11 09:13:17;;;;;;;41.20;24.13;;;2.00;99.90;;;;;;5035329;28;20053;-73
2021/11/11 09:15:44;;;;;;;34.70;21.55;;;2.00;99.90;;;;;;5036323;28;20075;-72
2021/11/11 09:18:17;;;;;;;36.95;21.73;;;2.00;99.90;;;;;;5036546;28;20060;-73
2021/11/11 09:20:44;;;;;;;30.33;20.33;;;2.10;99.90;;;;;;5036102;28;20045;-73
2021/11/11 09:23:14;;;;;;;24.35;16.98;;;2.20;99.90;;;;;;5036877;28;20095;-73
2021/11/11 09:25:41;;;;;;;24.98;17.95;;;2.30;99.90;;;;;;5033939;28;20120;-73
2021/11/11 09:28:09;;;;;;;26.70;16.90;;;2.40;99.90;;;;;;5030013;28;20602;-73
2021/11/11 09:30:38;;;;;;;25.02;19.38;;;2.50;99.90;;;;;;5037795;28;20052;-73
2021/11/11 09:33:07;;;;;;;29.55;18.70;;;2.60;99.90;;;;;;5035769;28;20570;-72
2021/11/11 09:35:39;;;;;;;29.60;19.35;;;2.60;99.90;;;;;;5052883;28;20075;-73
2021/11/11 09:38:11;;;;;;;27.90;19.05;;;2.60;99.90;;;;;;5017126;28;20049;-73
2021/11/11 09:40:38;;;;;;;23.48;16.80;;;2.70;99.90;;;;;;5019730;28;20052;-73
2021/11/11 09:43:07;;;;;;;32.60;21.58;;;2.80;99.90;;;;;;5035957;28;20041;-73
2021/11/11 09:45:40;;;;;;;26.70;17.55;;;2.80;99.90;;;;;;5035873;28;20107;-73
2021/11/11 09:48:10;;;;;;;33.55;19.67;;;2.80;99.90;;;;;;5053904;28;20045;-73
2021/11/11 09:50:37;;;;;;;33.33;20.55;;;2.90;99.90;;;;;;5019890;28;20082;-73
2021/11/11 09:53:09;;;;;;;35.17;21.30;;;2.90;99.90;;;;;;5035450;28;20516;-72
2021/11/11 09:58:37;;;;;;;35.58;21.27;;;3.00;99.90;;;;;;5030177;28;20045;-73
2021/11/11 10:01:20;;;;;;;33.35;20.40;;;3.10;99.90;;;;;;5038357;28;20041;-73
2021/11/11 10:03:53;;;;;;;34.92;23.70;;;3.20;99.90;;;;;;5035316;28;20131;-73
2021/11/11 10:06:27;;;;;;;37.25;25.63;;;3.20;99.90;;;;;;5035061;28;20047;-73
2021/11/11 10:08:57;;;;;;;38.15;25.60;;;3.30;99.90;;;;;;5026425;28;20137;-73
2021/11/11 10:11:32;;;;;;;48.10;20.50;;;3.40;99.90;;;;;;5026671;28;20057;-73
2021/11/11 10:14:10;;;;;;;36.17;18.38;;;3.40;99.90;;;;;;5019474;28;20144;-72
2021/11/11 10:16:43;;;;;;;30.67;15.55;;;3.30;99.90;;;;;;5051741;28;20194;-73
2021/11/11 10:19:11;;;;;;;41.13;17.58;;;3.30;99.90;;;;;;5034122;28;20060;-73
2021/11/11 10:21:50;;;;;;;19.70;15.65;;;3.30;99.90;;;;;;5026665;28;20434;-73
2021/11/11 10:24:29;;;;;;;22.40;16.73;;;3.40;99.90;;;;;;5035198;28;20040;-72
2021/11/11 10:27:31;;;;;;;22.67;15.75;;;3.50;99.90;;;;;;5018598;28;20041;-73
2021/11/11 10:30:08;;;;;;;25.02;15.80;;;3.60;99.90;;;;;;5019186;28;20056;-73
2021/11/11 10:33:09;;;;;;;27.95;16.65;;;3.60;99.90;;;;;;5035469;28;20045;-73
2021/11/11 10:35:43;;;;;;;33.35;21.75;;;3.70;99.90;;;;;;5023491;28;20136;-73
2021/11/11 10:38:19;;;;;;;30.38;20.75;;;3.70;99.90;;;;;;5018601;28;20500;-73
2021/11/11 10:40:52;;;;;;;29.05;20.10;;;3.80;99.90;;;;;;5054440;28;20044;-73
2021/11/11 10:43:24;;;;;;;29.58;20.98;;;3.90;99.90;;;;;;5039391;28;20055;-73
2021/11/11 10:45:54;;;;;;;30.20;21.65;;;3.90;99.90;;;;;;5049077;28;20129;-73
2021/11/11 10:48:27;;;;;;;28.67;21.20;;;4.00;99.90;;;;;;5024697;28;20562;-72
2021/11/11 10:51:05;;;;;;;32.33;20.92;;;4.10;99.90;;;;;;5037723;28;20531;-73
2021/11/11 10:53:36;;;;;;;29.02;22.33;;;4.20;99.90;;;;;;5052040;28;20052;-73
2021/11/11 10:56:06;;;;;;;31.20;22.50;;;4.40;99.90;;;;;;5033797;28;20052;-73
2021/11/11 10:58:39;;;;;;;25.40;19.55;;;4.40;99.90;;;;;;5034630;28;20061;-73
2021/11/11 11:01:12;;;;;;;33.28;24.30;;;4.60;99.90;;;;;;5032464;28;20107;-73
2021/11/11 11:03:42;;;;;;;32.03;21.63;;;4.60;99.90;;;;;;5029873;28;20045;-73
2021/11/11 11:06:17;;;;;;;28.25;19.35;;;4.60;99.90;;;;;;5036206;28;20447;-72
2021/11/11 11:08:51;;;;;;;27.58;20.52;;;4.60;99.90;;;;;;5034330;28;20037;-73
2021/11/11 11:11:29;;;;;;;28.05;21.20;;;4.70;99.90;;;;;;5011320;28;20135;-73
2021/11/11 11:14:10;;;;;;;27.55;21.73;;;4.80;99.90;;;;;;5033831;28;20076;-73
2021/11/11 11:16:37;;;;;;;27.88;20.52;;;4.90;99.90;;;;;;5028370;28;20496;-72
2021/11/11 11:19:13;;;;;;;25.98;20.13;;;5.00;99.90;;;;;;5050850;28;20499;-73
2021/11/11 11:21:52;;;;;;;31.60;21.67;;;5.10;99.90;;;;;;5049336;28;20041;-72
2021/11/11 11:24:25;;;;;;;26.38;21.75;;;5.30;99.90;;;;;;5033364;28;20053;-73
2021/11/11 11:26:56;;;;;;;25.42;21.08;;;5.40;99.90;;;;;;5034066;28;20048;-73
2021/11/11 11:29:35;;;;;;;23.67;18.58;;;5.50;99.90;;;;;;5011052;28;20066;-72
2021/11/11 11:32:21;;;;;;;23.67;17.60;;;5.70;99.90;;;;;;5033583;28;20083;-73
2021/11/11 11:34:54;;;;;;;24.92;18.50;;;5.80;99.90;;;;;;5033315;28;20395;-73
2021/11/11 11:37:29;;;;;;;24.63;19.58;;;5.90;99.90;;;;;;5033503;28;20052;-73
2021/11/11 11:40:13;;;;;;;24.38;19.35;;;6.00;99.90;;;;;;5017433;28;20467;-73
2021/11/11 11:42:43;;;;;;;25.63;19.88;;;6.10;99.90;;;;;;5032024;28;20045;-72
2021/11/11 11:45:19;;;;;;;24.35;19.35;;;6.20;99.90;;;;;;5054224;28;20044;-73
2021/11/11 11:47:55;;;;;;;23.63;18.45;;;6.20;99.90;;;;;;5028931;28;20049;-73
2021/11/11 11:50:30;;;;;;;24.55;19.73;;;6.30;99.90;;;;;;5034334;28;20091;-73
2021/11/11 11:53:06;;;;;;;22.80;18.45;;;6.30;99.90;;;;;;5032279;28;20037;-72
2021/11/11 11:55:44;;;;;;;24.70;19.20;;;6.50;99.90;;;;;;5053992;28;20051;-73
2021/11/11 12:29:47;;;;;;;26.40;18.65;;;7.50;99.90;;;;;;5032158;28;20051;-73
2021/11/11 12:41:10;;;;;;;28.50;17.60;;;8.10;99.90;;;;;;5034163;28;20053;-73
2021/11/11 12:44:12;;;;;;;21.77;17.08;;;8.20;99.90;;;;;;5031783;28;20399;-72
2021/11/11 12:46:40;;;;;;;;;;;8.30;99.90;;;;;;5026523;28;20092;-73
2021/11/11 12:49:33;;;;;;;24.25;18.42;;;8.40;99.90;;;;;;5022164;28;19931;-73
2021/11/11 12:52:20;;;;;;;22.27;17.90;;;8.50;99.90;;;;;;5035656;28;20076;-73
2021/11/11 12:55:17;;;;;;;22.15;17.20;;;8.60;99.90;;;;;;5053704;28;20052;-73
2021/11/11 12:57:58;;;;;;;20.08;16.83;;;8.70;99.90;;;;;;5036747;28;20049;-73
2021/11/11 13:00:48;;;;;;;21.90;16.10;;;8.70;99.90;;;;;;5033265;28;20218;-72
2021/11/11 13:03:20;;;;;;;22.58;17.02;;;8.80;99.90;;;;;;5033128;28;20124;-72
2021/11/11 13:05:57;;;;;;;20.17;16.52;;;8.90;99.90;;;;;;5033506;28;20574;-73
2021/11/11 13:08:55;;;;;;;23.05;19.52;;;8.90;99.90;;;;;;5024555;28;20802;-73
2021/11/11 13:11:30;;;;;;;21.85;17.20;;;8.90;99.90;;;;;;5032336;28;20037;-73
2021/11/11 13:14:17;;;;;;;20.05;17.85;;;9.00;99.90;;;;;;5034029;28;20034;-73
2021/11/11 13:16:59;;;;;;;22.77;17.75;;;9.00;99.90;;;;;;5035491;28;20057;-73
2021/11/11 13:19:34;;;;;;;21.30;16.48;;;9.10;99.90;;;;;;5035922;28;20040;-72
2021/11/11 13:22:09;;;;;;;23.50;17.77;;;9.10;99.90;;;;;;5034574;28;20420;-73
2021/11/11 14:27:48;;;;;;;21.30;18.05;;;9.50;99.90;;;;;;5049639;28;20045;-73
2021/11/11 16:02:43;;;;;;;31.80;22.85;;;5.70;99.90;;;;;;5032022;28;20459;-72
2021/11/11 16:19:43;;;;;;;33.22;22.63;;;5.20;99.90;;;;;;5051189;28;20052;-72
2021/11/11 16:27:38;;;;;;;29.75;20.73;;;4.90;99.90;;;;;;5046490;28;20079;-73
2021/11/11 16:30:17;;;;;;;29.15;21.23;;;4.90;99.90;;;;;;5031501;28;20123;-72
2021/11/11 16:32:46;;;;;;;29.48;21.02;;;4.90;99.90;;;;;;5013931;28;20496;-73
2021/11/11 16:35:21;;;;;;;28.42;20.65;;;4.90;99.90;;;;;;5026339;28;20045;-72
2021/11/11 16:37:49;;;;;;;27.48;20.23;;;4.90;99.90;;;;;;5032051;28;20077;-72
2021/11/11 16:40:25;;;;;;;31.35;22.60;;;4.90;99.90;;;;;;5051787;28;20088;-72
2021/11/11 16:42:53;;;;;;;32.85;20.75;;;4.90;99.90;;;;;;5039062;28;20120;-72
2021/11/11 16:45:25;;;;;;;27.88;20.30;;;4.80;99.90;;;;;;5032683;28;20037;-72
2021/11/11 16:47:57;;;;;;;31.65;21.58;;;4.80;99.90;;;;;;5049105;28;20052;-71
2021/11/11 16:50:29;;;;;;;30.08;20.70;;;4.70;99.90;;;;;;5048655;28;20057;-72
2021/11/11 16:52:57;;;;;;;30.52;22.42;;;4.70;99.90;;;;;;5049905;28;20033;-72
2021/11/11 16:55:25;;;;;;;28.42;19.95;;;4.70;99.90;;;;;;5046903;28;20052;-72
2021/11/11 16:57:52;;;;;;;30.38;20.52;;;4.60;99.90;;;;;;5031028;28;20036;-72
2021/11/11 17:00:20;;;;;;;29.65;19.83;;;4.60;99.90;;;;;;5032371;28;20576;-72
2021/11/11 17:02:52;;;;;;;30.67;20.90;;;4.60;99.90;;;;;;5044709;28;20125;-72
2021/11/11 17:05:24;;;;;;;29.45;18.80;;;4.50;99.90;;;;;;5027725;28;20093;-73
2021/11/11 17:07:52;;;;;;;59.78;39.33;;;4.60;99.90;;;;;;5034340;28;20048;-71
2021/11/11 17:10:26;;;;;;;39.13;27.73;;;4.60;99.90;;;;;;5005210;28;20415;-72